Time;durP1;ratioP1;P1;durP2;ratioP2;P2;SDS_P1;SDS_P2;PMS_P1;PMS_P2;Temp;Humidity;BMP_temperature;BMP_pressure;BME280_temperature;BME280_humidity;BME280_pressure;Samples;Min_cycle;Max_cycle;Signal;HPM_P1;HPM_P2
2023/05/24 00:00:52;;;;;;;3.80;3.23;;;12.10;78.30;;;11.64;66.13;98205.44;4998954;28;20556;-72
2023/05/24 00:03:20;;;;;;;5.40;2.80;;;12.00;77.80;;;11.52;66.21;98206.13;5004271;28;20455;-71
2023/05/24 00:05:49;;;;;;;5.80;2.90;;;11.90;77.10;;;11.00;65.93;98154.81;5010215;28;20466;-74
2023/05/24 00:08:16;;;;;;;5.33;3.13;;;11.80;76.90;;;11.08;66.22;98148.31;5006136;28;21263;-73
2023/05/24 00:10:43;;;;;;;5.40;2.83;;;11.70;77.30;;;11.53;66.39;98209.69;5017228;28;20520;-74
2023/05/24 00:13:10;;;;;;;4.20;3.43;;;11.70;77.80;;;11.27;67.41;98216.88;5005871;28;20488;-73
2023/05/24 00:15:37;;;;;;;3.87;2.50;;;11.60;77.80;;;11.21;68.17;98213.16;5000321;28;20459;-74
2023/05/24 00:18:05;;;;;;;4.60;3.40;;;11.50;78.20;;;11.39;67.49;98200.78;5014778;28;20458;-73
2023/05/24 00:20:32;;;;;;;8.40;3.40;;;11.60;78.30;;;11.24;68.16;98195.69;5019120;28;20485;-73
2023/05/24 00:23:01;;;;;;;3.90;3.50;;;11.60;78.20;;;11.13;68.20;98178.22;5018957;28;20501;-73
2023/05/24 00:25:28;;;;;;;3.40;3.10;;;11.60;78.30;;;11.23;67.62;98189.44;5006906;28;20462;-73
2023/05/24 00:27:55;;;;;;;3.80;3.43;;;11.60;78.30;;;11.18;67.59;98191.97;5007714;28;20462;-72
2023/05/24 00:30:22;;;;;;;3.43;2.67;;;11.60;78.20;;;11.22;67.84;98204.00;5007732;28;20550;-74
2023/05/24 00:32:50;;;;;;;4.10;2.87;;;11.50;78.10;;;11.02;67.42;98129.22;4998413;28;20480;-73
2023/05/24 00:35:17;;;;;;;3.73;3.43;;;11.60;78.30;;;11.04;68.34;98192.00;5002890;28;20469;-72
2023/05/24 00:37:45;;;;;;;6.60;3.10;;;11.50;78.00;;;10.96;68.75;98196.84;5018887;28;20944;-72
2023/05/24 00:40:14;;;;;;;3.70;3.40;;;11.40;78.40;;;11.03;68.54;98198.47;5027117;28;20826;-72
2023/05/24 00:42:41;;;;;;;5.67;3.10;;;11.30;78.70;;;10.95;68.51;98177.06;4994577;28;20489;-73
2023/05/24 00:45:10;;;;;;;6.03;3.73;;;11.40;78.70;;;10.93;69.06;98194.56;5025145;28;20466;-73
2023/05/24 00:47:37;;;;;;;5.10;3.37;;;11.30;78.80;;;10.82;69.70;98185.22;5021645;28;20963;-73
2023/05/24 00:50:07;;;;;;;3.90;3.13;;;11.20;79.10;;;10.69;70.61;98200.44;5025968;28;20481;-73
2023/05/24 00:52:35;;;;;;;7.03;3.30;;;11.10;79.60;;;10.58;70.94;98171.38;4998646;28;20450;-72
2023/05/24 00:55:03;;;;;;;5.43;2.90;;;11.10;79.90;;;10.69;70.53;98192.34;5017573;28;20482;-73
2023/05/24 00:57:32;;;;;;;3.23;2.73;;;11.10;80.10;;;10.72;70.51;98185.66;5025398;28;20807;-72
2023/05/24 01:00:00;;;;;;;8.73;4.20;;;11.00;80.30;;;10.51;71.22;98165.97;5021286;28;20459;-73
2023/05/24 01:02:27;;;;;;;5.07;3.50;;;11.00;80.50;;;10.83;70.86;98192.28;5019257;28;20470;-72
2023/05/24 01:04:55;;;;;;;4.67;3.33;;;11.00;80.50;;;10.80;70.38;98195.41;5001525;28;20856;-71
2023/05/24 01:07:36;;;;;;;4.87;3.63;;;11.10;80.40;;;10.61;70.15;98170.94;5002954;28;20469;-72
2023/05/24 01:10:15;;;;;;;4.50;3.23;;;11.10;80.10;;;10.70;70.38;98196.72;5010981;28;20486;-72
2023/05/24 01:13:00;;;;;;;4.10;3.70;;;11.10;80.10;;;10.49;70.44;98185.09;5005977;28;20503;-71
2023/05/24 01:15:38;;;;;;;7.07;3.90;;;11.00;80.00;;;10.58;69.37;98182.19;5022161;28;20486;-72
2023/05/24 01:18:12;;;;;;;5.73;3.30;;;11.00;79.80;;;10.66;70.34;98187.34;5021368;28;21015;-74
2023/05/24 01:20:40;;;;;;;5.37;3.33;;;11.00;79.60;;;10.69;69.18;98165.31;5002614;28;20450;-73
2023/05/24 01:23:22;;;;;;;4.27;3.10;;;11.00;79.50;;;10.82;68.75;98179.81;4994419;28;20549;-73
2023/05/24 01:26:19;;;;;;;3.97;3.13;;;11.10;79.40;;;10.47;68.96;98133.16;5020064;28;20458;-72
2023/05/24 01:28:49;;;;;;;4.60;3.03;;;11.00;79.30;;;10.20;68.85;98099.97;5020832;28;20497;-72
2023/05/24 01:31:18;;;;;;;4.60;2.90;;;11.00;79.30;;;10.49;68.91;98152.69;5021130;28;20532;-73
2023/05/24 01:33:45;;;;;;;3.80;3.40;;;11.00;78.90;;;10.63;68.03;98169.69;5021078;28;20467;-73
2023/05/24 01:36:13;;;;;;;4.00;2.90;;;11.10;78.80;;;10.46;69.73;98187.38;5000737;28;20457;-72
2023/05/24 01:38:41;;;;;;;7.03;3.13;;;10.90;78.90;;;10.67;68.82;98186.28;5016543;28;20862;-72
2023/05/24 01:41:23;;;;;;;2.90;2.53;;;10.90;79.10;;;10.71;68.54;98176.75;5015219;28;20459;-72
2023/05/24 01:44:02;;;;;;;5.53;3.20;;;11.00;78.60;;;10.83;68.36;98194.97;5016334;28;20950;-73
2023/05/24 01:46:36;;;;;;;7.83;3.33;;;11.10;78.50;;;10.62;67.67;98181.56;5017497;28;20828;-73
2023/05/24 01:49:16;;;;;;;4.40;2.70;;;11.00;78.10;;;10.66;66.77;98179.22;5016332;28;20905;-75
2023/05/24 01:51:49;;;;;;;5.13;2.57;;;11.00;76.90;;;10.56;67.46;98195.06;5001402;28;20462;-71
2023/05/24 01:54:21;;;;;;;5.60;3.47;;;10.90;77.10;;;10.67;67.17;98186.28;5017029;28;20473;-71
2023/05/24 01:56:52;;;;;;;5.53;2.60;;;10.90;77.10;;;10.62;66.60;98183.41;5006145;28;20536;-71
2023/05/24 01:59:23;;;;;;;4.57;3.13;;;11.00;77.00;;;10.53;66.76;98171.16;5027517;28;20533;-72
2023/05/24 02:01:50;;;;;;;4.60;2.97;;;10.90;77.00;;;10.31;66.83;98176.78;5018200;28;20986;-72
2023/05/24 02:04:19;;;;;;;9.03;2.93;;;10.80;77.20;;;10.25;66.57;98170.34;5012637;28;20510;-74
2023/05/24 02:06:46;;;;;;;4.00;2.97;;;10.70;76.60;;;9.44;66.18;98037.34;5016730;28;20474;-72
2023/05/24 02:09:13;;;;;;;5.63;3.07;;;10.80;76.50;;;10.40;66.23;98188.19;5007315;28;21057;-74
2023/05/24 02:11:40;;;;;;;4.70;2.93;;;10.80;76.20;;;10.34;65.90;98193.41;5024495;28;21939;-74
2023/05/24 02:14:07;;;;;;;5.83;2.70;;;10.70;75.90;;;10.11;65.84;98155.19;5018222;28;20474;-74
2023/05/24 02:16:41;;;;;;;3.50;2.60;;;10.70;75.40;;;10.13;65.31;98175.56;5004459;28;20454;-75
2023/05/24 02:19:09;;;;;;;10.10;3.23;;;10.60;75.30;;;9.78;65.91;98146.06;5002670;28;20476;-74
2023/05/24 02:21:36;;;;;;;3.97;2.53;;;10.50;75.10;;;9.61;65.20;98108.72;5025305;28;20459;-73
2023/05/24 02:24:04;;;;;;;8.17;3.10;;;10.50;75.00;;;9.27;65.66;98067.41;5000248;28;20463;-74
2023/05/24 02:26:32;;;;;;;4.13;2.37;;;10.50;75.30;;;10.03;64.81;98161.66;5025244;28;20484;-72
2023/05/24 02:28:59;;;;;;;6.10;3.10;;;10.50;75.30;;;9.95;65.58;98189.69;5009280;28;20478;-73
2023/05/24 02:31:27;;;;;;;6.00;3.30;;;10.40;75.30;;;10.06;66.03;98204.41;5012829;28;20468;-73
2023/05/24 02:33:58;;;;;;;5.43;3.10;;;10.40;75.40;;;10.16;65.85;98199.44;5018042;28;20536;-73
2023/05/24 02:36:25;;;;;;;6.80;2.57;;;10.50;75.40;;;10.19;65.83;98196.31;5025362;28;21384;-73
2023/05/24 02:38:52;;;;;;;6.97;2.70;;;10.50;75.20;;;9.68;65.32;98135.69;5004524;28;20458;-73
2023/05/24 02:41:20;;;;;;;2.80;2.53;;;10.50;74.90;;;10.12;64.36;98183.84;5006761;28;20950;-74
2023/05/24 02:43:48;;;;;;;5.97;2.60;;;10.60;74.80;;;10.07;65.20;98187.19;5011408;28;20450;-73
2023/05/24 02:46:16;;;;;;;5.90;3.03;;;10.50;74.70;;;9.95;64.27;98153.78;5013020;28;20462;-73
2023/05/24 02:48:43;;;;;;;8.63;2.97;;;10.50;74.70;;;9.94;65.03;98182.63;5007565;28;20489;-73
2023/05/24 02:51:11;;;;;;;6.70;2.80;;;10.40;74.30;;;9.42;64.57;98104.97;5023966;28;20462;-74
2023/05/24 02:53:38;;;;;;;5.77;2.80;;;10.40;74.40;;;9.61;64.39;98107.91;5023665;28;20539;-74
2023/05/24 02:56:06;;;;;;;5.33;3.00;;;10.40;74.30;;;9.64;64.99;98123.66;5007687;28;20485;-73
2023/05/24 02:58:39;;;;;;;4.70;2.80;;;10.40;74.50;;;10.18;64.29;98185.75;5024414;28;20463;-72
2023/05/24 03:01:06;;;;;;;4.70;2.00;;;10.40;73.90;;;10.12;63.83;98190.09;5005304;28;20555;-73
2023/05/24 03:03:33;;;;;;;8.93;3.07;;;10.50;73.40;;;10.06;64.34;98193.63;5008270;28;20978;-72
2023/05/24 03:06:01;;;;;;;12.13;2.80;;;10.50;73.40;;;9.93;63.77;98180.97;5007987;28;20988;-73
2023/05/24 03:08:29;;;;;;;4.30;1.97;;;10.40;73.20;;;9.85;63.85;98190.09;5008197;28;20811;-73
2023/05/24 03:10:57;;;;;;;4.00;2.03;;;10.40;73.20;;;9.96;63.98;98195.91;5005785;28;20491;-73
2023/05/24 03:13:24;;;;;;;4.80;1.97;;;10.30;73.60;;;10.04;64.42;98199.25;5021622;28;20462;-72
2023/05/24 03:15:52;;;;;;;4.30;2.80;;;10.30;73.70;;;9.94;63.96;98193.41;5003717;28;20459;-73
2023/05/24 03:18:19;;;;;;;3.60;2.70;;;10.40;73.60;;;10.01;64.90;98204.22;5005205;28;20469;-71
2023/05/24 03:20:47;;;;;;;8.13;3.00;;;10.30;73.70;;;9.80;64.80;98189.88;5026805;28;20847;-72
2023/05/24 03:23:14;;;;;;;3.57;2.10;;;10.30;73.60;;;10.02;63.84;98201.31;5000419;28;20454;-73
2023/05/24 03:25:43;;;;;;;5.20;2.93;;;10.30;73.60;;;9.86;64.62;98191.75;5026360;28;20462;-72
2023/05/24 03:28:13;;;;;;;4.23;2.40;;;10.30;73.60;;;9.90;64.16;98187.59;5009764;28;20462;-71
2023/05/24 03:30:40;;;;;;;4.50;2.60;;;10.30;73.90;;;9.92;64.37;98206.28;5006214;28;20532;-73
2023/05/24 03:33:08;;;;;;;6.93;2.53;;;10.30;73.60;;;9.84;64.44;98188.44;5012894;28;20458;-73
2023/05/24 03:35:37;;;;;;;5.50;2.80;;;10.30;73.60;;;9.70;63.87;98132.78;5006849;28;20548;-72
2023/05/24 03:38:04;;;;;;;3.70;2.30;;;10.40;73.70;;;9.59;65.15;98137.75;5017374;28;20499;-73
2023/05/24 03:40:33;;;;;;;2.83;2.47;;;10.40;73.90;;;9.45;65.22;98133.38;4995728;28;21111;-72
2023/05/24 03:43:01;;;;;;;4.33;2.77;;;10.30;74.00;;;9.70;66.01;98189.47;5017017;28;20939;-73
2023/05/24 03:45:32;;;;;;;8.00;3.07;;;10.20;74.70;;;9.77;66.63;98206.47;5019373;28;20470;-72
2023/05/24 03:48:03;;;;;;;6.93;2.80;;;10.20;75.30;;;9.69;67.74;98191.31;4999982;28;20532;-74
2023/05/24 03:50:30;;;;;;;5.27;2.47;;;10.20;76.10;;;9.30;67.73;98110.13;5026426;28;20482;-73
2023/05/24 03:52:58;;;;;;;2.93;2.70;;;10.20;76.70;;;9.56;68.14;98148.16;5004330;28;20453;-73
2023/05/24 03:55:25;;;;;;;3.13;2.30;;;10.20;76.80;;;10.11;67.37;98201.94;5018959;28;20487;-72
2023/05/24 03:57:54;;;;;;;7.37;3.70;;;10.30;76.80;;;10.01;68.42;98193.41;5014955;28;20466;-73
2023/05/24 04:00:23;;;;;;;6.27;2.93;;;10.30;76.80;;;10.12;67.15;98206.31;4994285;28;20869;-73
2023/05/24 04:02:50;;;;;;;5.03;2.90;;;10.40;76.70;;;9.98;67.11;98204.63;5000649;28;20463;-73
2023/05/24 04:05:17;;;;;;;4.43;3.03;;;10.30;76.70;;;9.96;66.65;98196.72;5023066;28;20500;-72
2023/05/24 04:07:45;;;;;;;3.47;2.70;;;10.30;76.60;;;9.76;67.39;98194.84;5023912;28;21058;-71
2023/05/24 04:10:12;;;;;;;4.73;3.03;;;10.30;76.30;;;9.94;67.04;98208.78;5015153;28;20481;-73
2023/05/24 04:12:41;;;;;;;2.80;2.50;;;10.30;76.30;;;9.62;67.60;98180.50;5006181;28;20767;-71
2023/05/24 04:15:14;;;;;;;6.90;3.10;;;10.20;76.70;;;10.06;66.80;98207.13;4998052;28;20457;-72
2023/05/24 04:17:44;;;;;;;3.80;2.80;;;10.30;76.30;;;10.00;66.40;98189.88;5019795;28;20477;-73
2023/05/24 04:20:12;;;;;;;8.53;2.63;;;10.40;76.20;;;9.95;65.55;98215.84;5007791;28;21066;-73
2023/05/24 04:22:41;;;;;;;7.30;2.80;;;10.30;75.40;;;9.72;65.76;98155.84;5015288;28;20467;-73
2023/05/24 04:25:12;;;;;;;9.57;2.97;;;10.40;75.30;;;10.04;66.08;98198.41;5002779;28;20972;-72
2023/05/24 04:27:40;;;;;;;6.50;2.27;;;10.40;76.00;;;9.97;65.83;98198.41;5020904;28;20460;-72
2023/05/24 04:30:09;;;;;;;5.00;2.20;;;10.40;75.40;;;9.90;66.37;98203.78;5000562;28;20533;-75
2023/05/24 04:32:36;;;;;;;5.73;3.17;;;10.30;75.50;;;9.99;66.12;98214.41;5005587;28;20464;-72
2023/05/24 04:35:06;;;;;;;3.97;2.40;;;10.30;75.50;;;10.05;66.59;98216.25;5013116;28;20636;-73
2023/05/24 04:37:34;;;;;;;3.67;2.63;;;10.40;75.90;;;9.26;67.07;98100.81;5015992;28;20459;-72
2023/05/24 04:40:03;;;;;;;3.77;3.40;;;10.40;76.30;;;10.04;66.93;98210.03;5004720;28;20454;-71
2023/05/24 04:42:31;;;;;;;8.70;3.03;;;10.40;76.20;;;10.00;67.07;98205.25;5023248;28;20466;-72
2023/05/24 04:44:58;;;;;;;6.00;2.60;;;10.40;76.40;;;10.24;67.21;98219.19;5019803;28;20501;-73
2023/05/24 04:47:26;;;;;;;9.23;3.40;;;10.50;76.70;;;10.38;66.66;98203.78;5021326;28;20450;-74
2023/05/24 04:49:53;;;;;;;8.47;3.23;;;10.70;76.80;;;10.40;67.32;98213.34;5026034;28;20478;-73
2023/05/24 04:52:22;;;;;;;6.97;3.07;;;10.60;77.10;;;10.55;67.36;98217.72;5018109;28;20537;-73
2023/05/24 04:54:49;;;;;;;5.17;3.10;;;10.80;77.60;;;10.39;67.47;98216.25;5025660;28;20461;-73
2023/05/24 04:57:21;;;;;;;4.77;3.33;;;10.80;77.20;;;10.31;68.96;98206.50;5021854;28;21038;-75
2023/05/24 04:59:50;;;;;;;7.67;3.90;;;10.70;77.70;;;10.23;67.34;98155.38;5027010;28;20986;-73
2023/05/24 05:02:17;;;;;;;5.93;3.70;;;10.80;77.90;;;10.80;67.09;98217.03;5005765;28;20460;-73
2023/05/24 05:04:45;;;;;;;9.90;3.23;;;10.90;77.20;;;10.54;65.90;98218.75;5020351;28;20473;-73
2023/05/24 05:07:12;;;;;;;6.63;3.43;;;11.00;76.30;;;10.40;65.72;98207.94;5013475;28;20469;-74
2023/05/24 05:09:40;;;;;;;4.40;2.50;;;10.90;75.90;;;10.27;66.28;98214.19;5006927;28;20482;-74
2023/05/24 05:12:08;;;;;;;5.43;2.80;;;10.70;75.70;;;10.29;65.78;98211.28;5006575;28;20469;-73
2023/05/24 05:14:35;;;;;;;5.10;3.07;;;10.70;75.90;;;10.62;65.92;98216.69;5026933;28;20454;-74
2023/05/24 05:17:03;;;;;;;11.80;3.27;;;10.90;75.80;;;10.66;64.06;98216.25;5016082;28;20462;-75
2023/05/24 05:19:30;;;;;;;6.50;2.70;;;11.00;75.30;;;10.51;65.37;98213.75;5022622;28;20461;-75
2023/05/24 05:21:57;;;;;;;3.90;2.57;;;10.80;75.00;;;10.60;63.83;98217.91;5003291;28;20451;-74
2023/05/24 05:24:25;;;;;;;9.50;2.87;;;11.00;74.60;;;10.68;64.50;98225.78;4997919;28;20950;-74
2023/05/24 05:26:53;;;;;;;5.00;2.10;;;10.90;74.40;;;11.08;62.44;98218.63;5004081;28;20459;-73
2023/05/24 05:29:20;;;;;;;3.63;2.57;;;11.20;74.30;;;10.97;63.12;98226.34;5027897;28;20548;-75
2023/05/24 05:31:48;;;;;;;5.27;2.77;;;11.20;73.80;;;11.14;62.23;98228.56;5013932;28;20462;-75
2023/05/24 05:34:15;;;;;;;5.03;2.80;;;11.30;73.50;;;11.18;64.47;98221.72;5001296;28;20454;-75
2023/05/24 05:36:43;;;;;;;6.63;3.10;;;11.40;74.10;;;11.13;61.06;98221.50;5023406;28;20737;-74
2023/05/24 05:39:10;;;;;;;4.47;2.33;;;11.50;72.50;;;10.89;62.15;98227.41;5018356;28;20458;-76
2023/05/24 05:41:41;;;;;;;4.63;2.40;;;11.30;72.10;;;11.16;60.38;98230.03;5017179;28;20997;-71
2023/05/24 05:44:09;;;;;;;5.93;2.63;;;11.40;71.80;;;11.15;60.01;98224.84;5016102;28;21049;-71
2023/05/24 05:46:36;;;;;;;6.40;2.67;;;11.40;70.70;;;11.03;61.05;98233.63;5015911;28;20459;-73
2023/05/24 05:49:04;;;;;;;3.80;2.67;;;11.40;71.00;;;11.19;60.35;98231.47;5008200;28;20462;-70
2023/05/24 05:51:31;;;;;;;3.20;1.63;;;11.50;71.10;;;11.22;60.92;98228.34;5000901;28;21071;-73
2023/05/24 05:53:58;;;;;;;3.60;2.33;;;11.50;71.10;;;11.04;59.99;98235.28;5002447;28;20545;-73
2023/05/24 05:56:27;;;;;;;6.67;2.37;;;11.40;70.10;;;10.80;60.35;98217.88;4993903;28;21008;-72
2023/05/24 05:58:54;;;;;;;4.03;2.20;;;11.30;70.30;;;10.82;60.98;98233.88;5023110;28;20469;-71
2023/05/24 06:01:25;;;;;;;4.10;2.13;;;11.30;70.50;;;10.93;59.81;98238.63;5019457;28;20476;-69
2023/05/24 06:03:53;;;;;;;3.20;2.07;;;11.30;70.10;;;11.03;60.67;98254.41;5019268;28;20598;-71
2023/05/24 06:06:20;;;;;;;2.90;2.37;;;11.30;70.50;;;11.04;59.77;98256.91;5017007;28;20470;-70
2023/05/24 06:08:47;;;;;;;5.63;2.40;;;11.40;69.80;;;11.01;59.01;98234.84;5010334;28;20461;-70
2023/05/24 06:11:15;;;;;;;3.73;1.83;;;11.50;69.80;;;11.04;59.21;98256.06;5012264;28;20478;-70
2023/05/24 06:13:42;;;;;;;6.80;2.37;;;11.40;68.50;;;10.99;59.42;98255.88;5002455;28;20982;-70
2023/05/24 06:16:10;;;;;;;4.67;2.20;;;11.30;68.70;;;10.99;58.52;98261.28;5017660;28;20527;-70
2023/05/24 06:18:39;;;;;;;6.43;2.50;;;11.30;68.20;;;11.08;58.42;98251.91;4997873;28;20466;-70
2023/05/24 06:21:09;;;;;;;6.73;2.20;;;11.40;68.20;;;11.05;58.38;98253.16;5018286;28;20466;-70
2023/05/24 06:23:36;;;;;;;3.93;1.70;;;11.40;67.80;;;11.10;58.59;98254.38;5013451;28;20466;-70
2023/05/24 06:26:03;;;;;;;5.70;2.20;;;11.40;67.70;;;11.14;58.02;98255.59;5011957;28;20452;-71
2023/05/24 06:28:31;;;;;;;2.20;1.77;;;11.50;67.70;;;11.22;57.96;98259.94;5012672;28;20469;-70
2023/05/24 06:30:58;;;;;;;4.43;2.10;;;11.50;67.70;;;11.53;56.99;98251.09;5014616;28;21068;-71
2023/05/24 06:33:26;;;;;;;8.40;1.97;;;11.80;67.50;;;11.90;56.70;98262.13;5017088;28;20450;-70
2023/05/24 06:35:55;;;;;;;2.00;1.90;;;12.00;67.10;;;11.64;57.10;98267.69;5019714;28;20461;-70
2023/05/24 06:38:22;;;;;;;4.40;1.90;;;12.10;66.10;;;11.74;56.70;98273.44;5000207;28;20453;-71
2023/05/24 06:40:49;;;;;;;3.80;2.10;;;12.10;66.00;;;11.76;56.92;98263.25;5020490;28;20470;-70
2023/05/24 06:43:17;;;;;;;6.47;2.57;;;12.10;66.00;;;11.52;57.14;98273.78;5000422;28;20989;-72
2023/05/24 06:45:44;;;;;;;4.20;1.90;;;12.00;65.70;;;11.52;56.78;98279.19;5015488;28;20474;-71
2023/05/24 06:48:11;;;;;;;2.90;2.03;;;11.90;65.40;;;11.38;57.31;98281.13;5012826;28;20461;-74
2023/05/24 06:50:40;;;;;;;4.30;1.93;;;11.80;65.50;;;11.43;57.35;98275.91;5018374;28;20723;-71
2023/05/24 06:53:09;;;;;;;3.37;1.90;;;11.80;66.10;;;11.37;57.24;98265.09;5003012;28;20903;-71
2023/05/24 06:55:36;;;;;;;5.27;2.50;;;11.90;65.40;;;11.64;56.94;98265.00;5017131;28;20593;-72
2023/05/24 06:58:04;;;;;;;2.30;1.90;;;12.00;65.60;;;11.89;56.50;98279.41;5013568;28;20485;-70
2023/05/24 07:00:31;;;;;;;6.90;2.37;;;12.10;65.60;;;11.90;56.59;98278.38;5003635;28;20466;-70
2023/05/24 07:02:58;;;;;;;3.77;2.10;;;12.20;65.40;;;12.08;55.59;98279.53;4997692;28;20516;-71
2023/05/24 07:05:25;;;;;;;3.00;2.37;;;12.30;64.70;;;11.73;55.64;98298.84;5003450;28;20455;-71
2023/05/24 07:07:52;;;;;;;8.23;3.27;;;12.30;63.60;;;12.07;56.63;98296.84;5016101;28;20549;-71
2023/05/24 07:10:21;;;;;;;6.27;2.20;;;12.30;65.00;;;12.18;55.20;98290.69;5022977;28;20517;-71
2023/05/24 07:12:48;;;;;;;3.60;2.13;;;12.50;64.10;;;12.23;55.57;98291.94;4994393;28;20978;-71
2023/05/24 07:15:16;;;;;;;3.83;1.77;;;12.60;63.60;;;12.47;53.98;98279.47;4998717;28;20969;-72
2023/05/24 07:17:43;;;;;;;3.53;2.30;;;12.80;62.90;;;12.47;54.34;98284.88;4992667;28;20464;-71
2023/05/24 07:20:12;;;;;;;7.20;1.93;;;12.80;62.50;;;12.50;53.64;98289.84;4993153;28;21018;-71
2023/05/24 07:22:40;;;;;;;2.97;2.67;;;12.90;62.30;;;12.42;53.32;98301.78;4997315;28;20466;-70
2023/05/24 07:25:08;;;;;;;3.17;2.20;;;12.70;61.20;;;12.26;53.91;98300.44;5018827;28;20458;-70
2023/05/24 07:27:37;;;;;;;7.90;2.40;;;12.70;61.30;;;12.55;53.59;98292.72;5011733;28;20460;-69
2023/05/24 07:30:06;;;;;;;4.40;2.40;;;12.80;61.80;;;12.92;52.57;98297.38;4994878;28;20512;-70
2023/05/24 07:32:33;;;;;;;4.93;2.40;;;13.10;60.90;;;13.07;52.14;98288.91;4997598;28;20464;-69
2023/05/24 07:35:01;;;;;;;4.70;2.17;;;13.30;60.50;;;13.09;52.60;98291.38;5018600;28;20545;-69
2023/05/24 07:37:28;;;;;;;5.83;2.80;;;13.40;60.40;;;13.06;52.13;98297.25;4998389;28;20932;-69
2023/05/24 07:39:55;;;;;;;3.83;2.70;;;13.40;60.00;;;13.28;52.17;98300.34;5017679;28;21228;-69
2023/05/24 07:42:22;;;;;;;7.37;2.10;;;13.50;60.10;;;13.30;51.05;98293.66;4999770;28;20467;-70
2023/05/24 07:44:51;;;;;;;3.30;1.90;;;13.60;59.10;;;12.92;52.18;98288.44;4995687;28;20564;-70
2023/05/24 07:47:18;;;;;;;2.17;1.97;;;13.40;59.00;;;13.03;52.56;98282.25;5009217;28;20524;-70
2023/05/24 07:49:45;;;;;;;8.90;2.00;;;13.40;59.50;;;13.32;52.20;98296.97;5020589;28;21330;-69
2023/05/24 07:52:13;;;;;;;5.00;2.10;;;13.50;59.60;;;12.91;51.97;98271.31;5016884;28;20555;-70
2023/05/24 07:54:40;;;;;;;2.40;1.60;;;13.40;59.00;;;12.96;52.75;98297.78;5017258;28;20594;-69
2023/05/24 07:57:08;;;;;;;4.10;2.37;;;13.30;59.40;;;12.73;53.34;98293.81;5011265;28;20537;-70
2023/05/24 07:59:35;;;;;;;5.83;2.23;;;13.10;59.40;;;12.49;54.19;98298.19;5010436;28;20524;-70
2023/05/24 08:02:04;;;;;;;4.40;2.40;;;12.90;60.10;;;12.68;52.98;98297.22;5012938;28;20512;-68
2023/05/24 08:04:32;;;;;;;5.90;2.00;;;13.00;59.80;;;12.39;54.27;98299.53;5004391;28;20200;-69
2023/05/24 08:07:00;;;;;;;3.60;2.43;;;12.80;59.90;;;12.42;54.55;98288.25;5008714;28;20464;-69
2023/05/24 08:09:28;;;;;;;3.53;1.90;;;12.80;60.50;;;12.55;53.91;98298.13;5021198;28;20553;-69
2023/05/24 08:11:56;;;;;;;3.73;2.00;;;12.90;60.20;;;12.67;53.28;98300.97;5015338;28;20476;-69
2023/05/24 08:14:23;;;;;;;3.00;2.13;;;12.90;59.70;;;12.86;53.02;98296.38;4996314;28;20544;-70
2023/05/24 08:16:51;;;;;;;4.80;2.33;;;13.00;59.80;;;12.87;53.25;98294.53;5014579;28;20464;-70
2023/05/24 08:19:19;;;;;;;5.30;2.57;;;13.10;60.00;;;13.09;52.63;98291.38;5003483;28;20443;-69
2023/05/24 08:21:47;;;;;;;6.87;2.40;;;13.30;59.70;;;12.80;53.24;98297.28;5018954;28;20458;-70
2023/05/24 08:24:14;;;;;;;5.70;2.10;;;13.20;59.50;;;13.10;52.62;98291.16;5017914;28;20510;-69
2023/05/24 08:26:42;;;;;;;2.20;1.60;;;13.30;59.80;;;13.25;52.31;98301.63;4989796;28;20471;-69
2023/05/24 08:29:09;;;;;;;4.50;2.43;;;13.40;59.40;;;12.81;52.78;98300.81;4995617;28;20466;-69
2023/05/24 08:31:37;;;;;;;3.07;2.03;;;13.30;59.00;;;12.57;53.96;98300.63;5010603;28;20527;-68
2023/05/24 08:34:04;;;;;;;4.47;2.93;;;13.00;59.40;;;12.71;53.87;98309.47;5015497;28;20481;-69
2023/05/24 08:36:33;;;;;;;2.30;2.00;;;13.00;59.90;;;12.61;54.50;98307.25;5014540;28;20789;-68
2023/05/24 08:39:00;;;;;;;4.80;2.67;;;13.00;60.30;;;12.68;53.96;98310.75;5013293;28;20471;-70
2023/05/24 08:41:31;;;;;;;2.97;1.97;;;13.00;60.20;;;12.72;54.17;98309.25;5010753;28;20941;-69
2023/05/24 08:44:01;;;;;;;4.77;2.27;;;13.00;60.40;;;12.57;53.64;98306.88;5017309;28;20455;-68
2023/05/24 08:46:29;;;;;;;4.50;2.43;;;13.00;60.00;;;12.37;54.18;98314.34;5017679;28;20466;-71
2023/05/24 08:48:58;;;;;;;3.63;2.67;;;12.90;59.60;;;12.50;54.44;98316.94;5014652;28;20481;-76
2023/05/24 08:51:27;;;;;;;2.83;2.13;;;12.80;60.10;;;12.55;53.80;98319.00;5020307;28;21031;-70
2023/05/24 08:53:57;;;;;;;9.23;3.30;;;12.90;59.90;;;12.41;54.06;98310.97;5011614;28;20455;-71
2023/05/24 08:56:27;;;;;;;5.47;2.30;;;12.80;60.00;;;12.36;54.30;98318.94;5008858;28;20458;-73
2023/05/24 08:58:55;;;;;;;5.53;2.13;;;12.70;59.90;;;12.26;54.95;98319.41;4994253;28;21042;-71
2023/05/24 09:01:25;;;;;;;4.40;2.53;;;12.70;60.20;;;12.56;54.64;98326.88;5014104;28;20605;-71
2023/05/24 09:03:53;;;;;;;5.90;2.10;;;12.70;60.70;;;12.49;54.58;98320.72;5017586;28;20817;-71
2023/05/24 09:06:24;;;;;;;4.53;1.83;;;12.80;60.60;;;12.52;54.52;98284.22;5007634;28;20469;-71
2023/05/24 09:08:52;;;;;;;5.00;2.43;;;12.90;61.00;;;12.97;53.43;98321.97;5013351;28;20464;-72
2023/05/24 09:11:23;;;;;;;3.17;2.03;;;13.20;60.40;;;12.78;54.36;98322.97;4996345;28;20475;-71
2023/05/24 09:13:51;;;;;;;3.50;2.37;;;13.20;60.60;;;12.86;54.01;98322.69;5021888;28;20478;-72
2023/05/24 09:16:18;;;;;;;5.10;2.27;;;13.20;60.30;;;12.48;54.42;98335.31;5017288;28;20458;-72
2023/05/24 09:18:46;;;;;;;4.20;2.33;;;12.90;60.10;;;12.12;54.99;98266.38;4992940;28;20472;-72
2023/05/24 09:21:13;;;;;;;5.30;2.33;;;12.80;60.80;;;12.41;54.76;98340.78;5016350;28;20470;-71
2023/05/24 09:23:41;;;;;;;5.00;2.50;;;12.80;60.50;;;12.29;55.15;98343.38;4993591;28;20474;-72
2023/05/24 09:26:10;;;;;;;3.27;2.27;;;12.80;60.40;;;12.38;55.06;98357.47;5013919;28;20463;-72
2023/05/24 09:28:40;;;;;;;4.47;2.63;;;12.70;60.70;;;12.52;54.80;98349.25;5014194;28;20582;-71
2023/05/24 09:31:07;;;;;;;4.33;2.23;;;12.70;60.70;;;12.67;54.80;98344.34;5008611;28;20937;-71
2023/05/24 09:33:35;;;;;;;5.17;2.13;;;12.90;61.00;;;12.65;54.10;98346.41;5014693;28;20457;-73
2023/05/24 09:36:05;;;;;;;3.30;1.90;;;12.80;60.00;;;12.49;54.67;98352.38;5010810;28;20517;-71
2023/05/24 09:38:34;;;;;;;4.10;2.03;;;12.80;60.20;;;12.82;53.31;98335.03;4996486;28;20465;-73
2023/05/24 09:41:03;;;;;;;4.00;2.40;;;13.00;59.70;;;12.72;53.30;98336.38;4995104;28;20459;-72
2023/05/24 09:43:33;;;;;;;10.03;2.77;;;13.10;59.50;;;12.93;52.98;98336.19;5016311;28;20501;-71
2023/05/24 09:46:03;;;;;;;5.57;2.00;;;13.20;59.30;;;13.10;52.52;98344.56;5001028;28;20451;-72
2023/05/24 09:48:32;;;;;;;3.10;2.60;;;13.30;59.00;;;12.98;52.52;98345.31;5014110;28;20492;-72
2023/05/24 09:51:05;;;;;;;5.10;2.60;;;13.50;58.80;;;12.69;52.56;98269.03;5013063;28;20514;-71
2023/05/24 09:53:33;;;;;;;5.10;2.10;;;13.50;58.90;;;13.39;51.43;98339.47;5014190;28;20537;-71
2023/05/24 09:56:03;;;;;;;4.37;2.10;;;13.60;58.30;;;13.67;50.96;98341.69;5004704;28;20525;-71
2023/05/24 09:58:32;;;;;;;5.00;2.50;;;13.80;58.20;;;13.80;50.63;98343.41;5018407;28;20483;-71
2023/05/24 10:01:09;;;;;;;3.27;2.43;;;13.90;57.90;;;13.92;50.12;98332.59;5005563;28;20452;-73
2023/05/24 10:03:37;;;;;;;4.20;2.63;;;14.10;57.50;;;13.54;50.99;98323.66;5017244;28;20460;-73
2023/05/24 10:06:06;;;;;;;4.30;2.70;;;14.00;57.30;;;14.07;50.01;98334.91;5015202;28;20958;-71
2023/05/24 10:08:35;;;;;;;3.80;2.40;;;14.20;57.10;;;14.15;49.51;98320.16;4991292;28;20460;-71
2023/05/24 10:11:04;;;;;;;2.40;2.10;;;14.40;57.10;;;14.21;49.35;98323.84;5026009;28;20564;-71
2023/05/24 10:13:34;;;;;;;4.13;2.73;;;14.50;57.00;;;14.58;48.51;98331.84;5020506;28;20464;-70
2023/05/24 10:16:01;;;;;;;6.57;2.93;;;14.70;56.40;;;14.64;48.29;98328.19;5023689;28;21156;-70
2023/05/24 10:18:31;;;;;;;4.50;3.03;;;14.70;55.80;;;14.47;48.47;98335.34;5015252;28;20466;-72
2023/05/24 10:21:01;;;;;;;6.60;2.37;;;14.70;55.50;;;14.38;48.37;98324.84;5022834;28;21116;-73
2023/05/24 10:23:31;;;;;;;3.50;2.00;;;14.70;55.50;;;14.65;48.31;98324.41;5019972;28;20475;-71
2023/05/24 10:26:06;;;;;;;4.97;2.50;;;14.70;55.60;;;14.66;47.13;98281.72;5014027;28;20524;-71